createdAt,value
2023-03-27T00:03:35.954Z,11.18
2023-03-27T00:08:39.247Z,12.48
2023-03-27T00:13:49.026Z,12.02
2023-03-27T00:18:53.653Z,13.10
2023-03-27T00:23:56.925Z,14.30
2023-03-27T00:28:59.823Z,10.50
2023-03-27T00:34:03.796Z,10.85
2023-03-27T00:39:07.345Z,9.27
2023-03-27T00:44:24.302Z,11.55
2023-03-27T00:49:29.204Z,11.07
2023-03-27T00:54:35.070Z,12.02
2023-03-27T00:59:39.973Z,11.65
2023-03-27T01:04:43.680Z,15.27
2023-03-27T01:09:46.707Z,15.30
2023-03-27T01:15:08.959Z,13.27
2023-03-27T01:20:24.794Z,10.43
2023-03-27T01:30:34.045Z,11.75
2023-03-27T01:35:43.205Z,13.73
2023-03-27T01:40:49.079Z,8.43
2023-03-27T01:46:03.044Z,10.20
2023-03-27T01:51:23.549Z,10.57
2023-03-27T01:56:33.030Z,11.85
2023-03-27T02:01:43.311Z,14.80
2023-03-27T02:06:50.021Z,14.10
2023-03-27T02:12:04.703Z,19.63
2023-03-27T02:17:10.491Z,19.40
2023-03-27T02:22:15.237Z,15.82
2023-03-27T02:27:32.935Z,17.08
2023-03-27T02:32:44.950Z,15.23
2023-03-27T02:37:51.263Z,19.70
2023-03-27T02:42:57.137Z,19.27
2023-03-27T02:48:04.009Z,19.40
2023-03-27T02:53:09.212Z,21.10
2023-03-27T02:58:17.723Z,21.05
2023-03-27T03:03:42.104Z,18.52
2023-03-27T03:09:02.449Z,22.75
2023-03-27T03:14:05.566Z,20.42
2023-03-27T03:19:09.472Z,24.48
2023-03-27T03:24:13.344Z,25.95
2023-03-27T03:29:16.774Z,21.25
2023-03-27T03:34:30.725Z,22.02
2023-03-27T03:39:33.551Z,26.00
2023-03-27T03:44:37.504Z,33.65
2023-03-27T03:49:51.734Z,33.53
2023-03-27T03:54:54.405Z,30.60
2023-03-27T04:00:00.042Z,31.45
2023-03-27T04:05:23.620Z,29.52
2023-03-27T04:10:32.818Z,27.50
2023-03-27T04:15:39.232Z,27.90
2023-03-27T04:20:54.790Z,31.83
2023-03-27T04:26:02.257Z,30.40
2023-03-27T04:31:26.594Z,30.27
2023-03-27T04:36:48.029Z,35.72
2023-03-27T04:41:58.758Z,31.92
2023-03-27T04:47:03.429Z,29.30
2023-03-27T04:52:07.443Z,26.05
2023-03-27T04:57:10.426Z,29.63
2023-03-27T05:02:13.944Z,24.75
2023-03-27T05:07:26.845Z,26.35
2023-03-27T05:12:29.815Z,24.52
2023-03-27T05:17:41.198Z,20.63
2023-03-27T05:22:45.458Z,18.52
2023-03-27T05:28:01.404Z,18.77
2023-03-27T05:33:08.266Z,19.00
2023-03-27T05:38:19.993Z,19.35
2023-03-27T05:43:51.488Z,21.67
2023-03-27T05:48:56.669Z,22.77
2023-03-27T05:53:59.741Z,25.73
2023-03-27T05:59:12.117Z,20.45
2023-03-27T06:04:18.766Z,16.05
2023-03-27T06:09:36.658Z,18.50
2023-03-27T06:15:06.341Z,20.02
2023-03-27T06:20:25.366Z,18.83
2023-03-27T06:25:35.182Z,16.02
2023-03-27T06:30:39.235Z,18.52
2023-03-27T06:36:11.036Z,18.10
2023-03-27T06:41:17.771Z,19.25
2023-03-27T06:46:45.247Z,17.50
2023-03-27T06:57:22.042Z,16.73
2023-03-27T07:02:28.828Z,18.30
2023-03-27T07:08:20.874Z,18.52
2023-03-27T07:13:27.997Z,20.25
2023-03-27T07:18:34.545Z,23.40
2023-03-27T07:23:37.603Z,18.40
2023-03-27T07:28:45.166Z,22.45
2023-03-27T07:33:48.882Z,24.63
2023-03-27T07:38:52.079Z,21.77
2023-03-27T07:43:59.274Z,20.70
2023-03-27T07:49:09.025Z,16.40
2023-03-27T07:54:13.784Z,17.25
2023-03-27T07:59:22.481Z,25.25
2023-03-27T08:04:58.460Z,11.20
2023-03-27T08:10:57.668Z,14.73
2023-03-27T08:16:47.009Z,16.13
2023-03-27T08:21:50.560Z,11.93
2023-03-27T08:26:53.692Z,11.13
2023-03-27T08:37:00.336Z,7.20
2023-03-27T08:42:18.817Z,8.07
2023-03-27T08:47:34.878Z,9.77
2023-03-27T08:52:45.914Z,9.07
2023-03-27T08:57:56.698Z,33.67
2023-03-27T09:03:16.306Z,13.27
2023-03-27T09:08:19.260Z,9.15
2023-03-27T09:13:36.201Z,9.25
2023-03-27T09:19:13.601Z,7.68
2023-03-27T09:24:28.928Z,7.65
2023-03-27T09:30:21.079Z,10.68
2023-03-27T09:35:32.615Z,10.82
2023-03-27T09:40:58.210Z,7.13
2023-03-27T09:46:05.137Z,11.60
2023-03-27T09:51:28.089Z,10.70
2023-03-27T09:56:32.047Z,10.80
2023-03-27T10:01:36.373Z,12.57
2023-03-27T10:07:02.830Z,6.35
2023-03-27T10:12:21.222Z,5.70
2023-03-27T10:17:37.249Z,5.68
2023-03-27T10:22:54.857Z,10.13
2023-03-27T10:28:15.314Z,14.50
2023-03-27T10:33:41.670Z,13.38
2023-03-27T10:39:14.918Z,10.82
2023-03-27T10:44:38.631Z,13.32
2023-03-27T10:54:54.864Z,9.25
2023-03-27T11:05:16.729Z,12.88
2023-03-27T11:10:35.711Z,20.95
2023-03-27T11:15:46.360Z,15.85
2023-03-27T11:21:16.291Z,21.25
2023-03-27T11:26:42.761Z,17.10
2023-03-27T11:31:48.764Z,20.67
2023-03-27T11:37:07.933Z,14.43
2023-03-27T11:42:24.394Z,13.73
2023-03-27T11:47:27.674Z,14.05
2023-03-27T11:52:42.459Z,17.90
2023-03-27T11:57:48.378Z,17.80
2023-03-27T12:03:17.197Z,15.40
2023-03-27T12:08:25.118Z,14.05
2023-03-27T12:13:42.521Z,11.50
2023-03-27T12:19:08.084Z,11.18
2023-03-27T12:24:17.185Z,19.42
2023-03-27T12:29:52.412Z,11.50
2023-03-27T12:34:58.631Z,10.63
2023-03-27T12:40:28.240Z,14.88
2023-03-27T12:45:44.167Z,17.60
2023-03-27T12:50:57.156Z,16.08
2023-03-27T12:56:27.088Z,19.13
2023-03-27T13:07:00.518Z,14.32
2023-03-27T13:12:21.912Z,16.35
2023-03-27T13:17:41.523Z,20.40
2023-03-27T13:22:47.167Z,21.95
2023-03-27T13:28:14.364Z,17.25
2023-03-27T13:33:31.718Z,23.60
2023-03-27T13:38:53.021Z,22.83
2023-03-27T13:43:58.661Z,22.05
2023-03-27T13:49:21.514Z,14.95
2023-03-27T13:54:43.273Z,18.60
2023-03-27T13:59:51.339Z,24.33
2023-03-27T14:05:18.155Z,19.15
2023-03-27T14:10:27.264Z,20.90
2023-03-27T14:15:40.885Z,18.98
2023-03-27T14:21:09.616Z,20.70
2023-03-27T14:26:23.045Z,25.60
2023-03-27T14:31:29.081Z,20.67
2023-03-27T14:36:46.348Z,17.92
2023-03-27T14:42:01.398Z,17.63
2023-03-27T14:47:12.228Z,18.10
2023-03-27T14:52:31.072Z,16.80
2023-03-27T14:57:55.355Z,18.92
2023-03-27T15:03:14.655Z,17.23
2023-03-27T15:08:21.959Z,28.95
2023-03-27T15:13:49.830Z,16.40
2023-03-27T15:19:24.231Z,17.05
2023-03-27T15:24:27.217Z,17.48
2023-03-27T15:29:32.495Z,8.80
2023-03-27T15:34:37.997Z,7.40
2023-03-27T15:40:01.102Z,6.53
2023-03-27T15:45:05.388Z,9.63
2023-03-27T15:50:22.926Z,7.32
2023-03-27T15:55:44.548Z,7.35
2023-03-27T16:00:48.523Z,6.63
2023-03-27T16:05:54.067Z,5.35
2023-03-27T16:10:57.327Z,6.90
2023-03-27T16:16:01.829Z,6.53
2023-03-27T16:21:09.214Z,11.35
2023-03-27T16:26:15.001Z,7.70
2023-03-27T16:31:19.072Z,10.73
2023-03-27T16:36:31.637Z,10.98
2023-03-27T16:41:34.177Z,12.27
2023-03-27T16:46:37.520Z,10.50
2023-03-27T16:51:40.326Z,15.38
2023-03-27T16:56:43.166Z,13.50
2023-03-27T17:01:46.126Z,54.80
2023-03-27T17:06:48.836Z,33.00
2023-03-27T17:11:51.860Z,17.65
2023-03-27T17:16:54.548Z,21.80
2023-03-27T17:21:57.574Z,17.83
2023-03-27T17:27:00.337Z,24.40
2023-03-27T17:32:03.115Z,15.73
2023-03-27T17:37:06.223Z,26.85
2023-03-27T17:42:09.274Z,17.90
2023-03-27T17:47:12.039Z,13.27
2023-03-27T17:52:14.986Z,12.88
2023-03-27T17:57:17.650Z,11.68
2023-03-27T18:02:21.473Z,9.43
2023-03-27T18:07:24.412Z,10.73
2023-03-27T18:12:27.202Z,16.33
2023-03-27T18:17:30.064Z,18.48
2023-03-27T18:22:32.793Z,12.15
2023-03-27T18:27:40.494Z,10.20
2023-03-27T18:32:44.182Z,10.07
2023-03-27T18:37:47.337Z,8.95
2023-03-27T18:42:50.203Z,9.90
2023-03-27T18:47:52.922Z,8.90
2023-03-27T18:52:55.597Z,8.68
2023-03-27T18:57:58.182Z,5.93
2023-03-27T19:03:00.908Z,6.97
2023-03-27T19:08:04.173Z,5.80
2023-03-27T19:13:07.355Z,6.53
2023-03-27T19:18:30.470Z,5.70
2023-03-27T19:23:52.371Z,8.35
2023-03-27T19:28:59.423Z,7.40
2023-03-27T19:34:02.603Z,8.15
2023-03-27T19:39:05.278Z,7.03
2023-03-27T19:44:07.827Z,5.15
2023-03-27T19:49:10.892Z,6.50
2023-03-27T19:54:28.876Z,6.72
2023-03-27T19:59:33.533Z,5.13
2023-03-27T20:04:36.418Z,5.55
2023-03-27T20:09:39.095Z,5.85
2023-03-27T20:14:42.633Z,7.32
2023-03-27T20:19:49.308Z,5.78
2023-03-27T20:24:52.095Z,5.50
2023-03-27T20:29:54.820Z,5.15
2023-03-27T20:34:57.659Z,6.20
2023-03-27T20:40:02.312Z,6.43
2023-03-27T20:45:06.291Z,6.10
2023-03-27T20:50:12.104Z,7.85
2023-03-27T20:55:22.768Z,8.38
2023-03-27T21:05:47.067Z,7.53
2023-03-27T21:10:54.308Z,8.13
2023-03-27T21:15:57.231Z,9.27
2023-03-27T21:21:00.528Z,7.53
2023-03-27T21:26:03.755Z,9.18
2023-03-27T21:31:09.811Z,7.00
2023-03-27T21:36:13.431Z,7.63
2023-03-27T21:41:16.787Z,7.07
2023-03-27T21:46:19.569Z,8.70
2023-03-27T21:51:22.376Z,5.35
2023-03-27T21:56:24.993Z,5.88
2023-03-27T22:01:28.011Z,7.82
2023-03-27T22:06:31.010Z,8.68
2023-03-27T22:11:33.759Z,7.22
2023-03-27T22:16:36.649Z,6.57
2023-03-27T22:21:39.355Z,8.00
2023-03-27T22:26:42.374Z,7.13
2023-03-27T22:31:46.058Z,6.90
2023-03-27T22:36:49.020Z,6.72
2023-03-27T22:41:51.868Z,7.93
2023-03-27T22:46:54.974Z,8.98
2023-03-27T22:51:57.692Z,10.07
2023-03-27T22:57:00.355Z,10.95
2023-03-27T23:02:03.110Z,11.57
2023-03-27T23:07:05.784Z,11.63
2023-03-27T23:12:08.605Z,10.77
2023-03-27T23:17:11.564Z,11.20
2023-03-27T23:22:14.056Z,10.80
2023-03-27T23:27:16.695Z,11.50
2023-03-27T23:32:19.638Z,12.68
2023-03-27T23:37:22.625Z,12.50
2023-03-27T23:42:25.191Z,10.90
2023-03-27T23:47:28.005Z,13.00
2023-03-27T23:52:31.070Z,11.63
2023-03-27T23:57:33.834Z,13.68
